sensor_id;sensor_type;location;lat;lon;timestamp;pressure;altitude;pressure_sealevel;temperature
70050;BMP180;57391;51.306;22.680;2022-09-30T00:01:42;99076.00;;;9.30
70050;BMP180;57391;51.306;22.680;2022-09-30T00:04:15;99074.80;;;9.30
70050;BMP180;57391;51.306;22.680;2022-09-30T00:06:43;99073.40;;;9.30
70050;BMP180;57391;51.306;22.680;2022-09-30T00:09:11;99075.20;;;9.30
70050;BMP180;57391;51.306;22.680;2022-09-30T00:11:40;99080.40;;;9.30
70050;BMP180;57391;51.306;22.680;2022-09-30T00:14:17;99091.00;;;9.30
70050;BMP180;57391;51.306;22.680;2022-09-30T00:16:45;99101.60;;;9.30
70050;BMP180;57391;51.306;22.680;2022-09-30T00:19:13;99102.60;;;9.24
70050;BMP180;57391;51.306;22.680;2022-09-30T00:21:41;99102.60;;;9.28
70050;BMP180;57391;51.306;22.680;2022-09-30T00:24:08;99100.80;;;9.26
70050;BMP180;57391;51.306;22.680;2022-09-30T00:26:35;99103.80;;;9.24
70050;BMP180;57391;51.306;22.680;2022-09-30T00:29:03;99093.40;;;9.28
70050;BMP180;57391;51.306;22.680;2022-09-30T00:31:33;99088.60;;;9.30
70050;BMP180;57391;51.306;22.680;2022-09-30T00:34:02;99084.80;;;9.30
70050;BMP180;57391;51.306;22.680;2022-09-30T00:36:52;99080.00;;;9.30
70050;BMP180;57391;51.306;22.680;2022-09-30T00:39:23;99075.20;;;9.30
70050;BMP180;57391;51.306;22.680;2022-09-30T00:41:59;99078.80;;;9.30
70050;BMP180;57391;51.306;22.680;2022-09-30T00:44:59;99077.80;;;9.30
70050;BMP180;57391;51.306;22.680;2022-09-30T00:48:16;99072.00;;;9.30
70050;BMP180;57391;51.306;22.680;2022-09-30T00:50:48;99060.60;;;9.20
70050;BMP180;57391;51.306;22.680;2022-09-30T00:53:40;99055.20;;;9.20
70050;BMP180;57391;51.306;22.680;2022-09-30T00:56:16;99054.80;;;9.10
70050;BMP180;57391;51.306;22.680;2022-09-30T01:01:35;99065.00;;;9.00
70050;BMP180;57391;51.306;22.680;2022-09-30T01:04:11;99066.80;;;9.00
70050;BMP180;57391;51.306;22.680;2022-09-30T01:06:41;99067.20;;;8.94
70050;BMP180;57391;51.306;22.680;2022-09-30T01:09:10;99065.80;;;8.90
70050;BMP180;57391;51.306;22.680;2022-09-30T01:11:37;99073.60;;;8.90
70050;BMP180;57391;51.306;22.680;2022-09-30T01:14:16;99083.80;;;8.80
70050;BMP180;57391;51.306;22.680;2022-09-30T01:34:22;99065.60;;;8.40
70050;BMP180;57391;51.306;22.680;2022-09-30T01:37:08;99061.60;;;8.30
70050;BMP180;57391;51.306;22.680;2022-09-30T01:42:46;99068.40;;;8.20
70050;BMP180;57391;51.306;22.680;2022-09-30T01:45:37;99065.00;;;8.20
70050;BMP180;57391;51.306;22.680;2022-09-30T01:51:20;99057.00;;;8.16
70050;BMP180;57391;51.306;22.680;2022-09-30T01:54:02;99056.40;;;8.14
70050;BMP180;57391;51.306;22.680;2022-09-30T01:56:42;99069.20;;;8.10
70050;BMP180;57391;51.306;22.680;2022-09-30T01:59:35;99069.00;;;8.10
70050;BMP180;57391;51.306;22.680;2022-09-30T02:02:17;99071.20;;;8.10
70050;BMP180;57391;51.306;22.680;2022-09-30T02:04:54;99072.20;;;8.00
70050;BMP180;57391;51.306;22.680;2022-09-30T02:07:32;99074.20;;;8.00
70050;BMP180;57391;51.306;22.680;2022-09-30T02:10:09;99076.40;;;7.98
70050;BMP180;57391;51.306;22.680;2022-09-30T02:12:46;99080.40;;;7.98
70050;BMP180;57391;51.306;22.680;2022-09-30T02:15:27;99076.00;;;7.90
70050;BMP180;57391;51.306;22.680;2022-09-30T02:18:06;99084.20;;;7.90
70050;BMP180;57391;51.306;22.680;2022-09-30T02:20:40;99093.20;;;7.90
70050;BMP180;57391;51.306;22.680;2022-09-30T02:23:16;99095.00;;;7.90
70050;BMP180;57391;51.306;22.680;2022-09-30T02:25:57;99094.20;;;7.90
70050;BMP180;57391;51.306;22.680;2022-09-30T02:28:28;99095.20;;;7.80
70050;BMP180;57391;51.306;22.680;2022-09-30T02:30:59;99097.20;;;7.80
70050;BMP180;57391;51.306;22.680;2022-09-30T02:33:46;99103.60;;;7.80
70050;BMP180;57391;51.306;22.680;2022-09-30T02:36:33;99103.80;;;7.70
70050;BMP180;57391;51.306;22.680;2022-09-30T02:39:28;99109.00;;;7.70
70050;BMP180;57391;51.306;22.680;2022-09-30T02:42:13;99107.60;;;7.60
70050;BMP180;57391;51.306;22.680;2022-09-30T02:44:42;99112.40;;;7.60
70050;BMP180;57391;51.306;22.680;2022-09-30T02:47:21;99118.00;;;7.50
70050;BMP180;57391;51.306;22.680;2022-09-30T02:50:08;99114.00;;;7.52
70050;BMP180;57391;51.306;22.680;2022-09-30T02:55:21;99115.20;;;7.50
70050;BMP180;57391;51.306;22.680;2022-09-30T02:57:59;99111.80;;;7.50
70050;BMP180;57391;51.306;22.680;2022-09-30T03:00:28;99116.20;;;7.42
70050;BMP180;57391;51.306;22.680;2022-09-30T03:03:06;99113.00;;;7.40
70050;BMP180;57391;51.306;22.680;2022-09-30T03:05:34;99109.40;;;7.40
70050;BMP180;57391;51.306;22.680;2022-09-30T03:08:01;99116.20;;;7.40
70050;BMP180;57391;51.306;22.680;2022-09-30T03:10:29;99134.80;;;7.40
70050;BMP180;57391;51.306;22.680;2022-09-30T03:25:25;99146.20;;;7.20
70050;BMP180;57391;51.306;22.680;2022-09-30T03:36:37;99152.40;;;7.10
70050;BMP180;57391;51.306;22.680;2022-09-30T03:39:25;99156.20;;;7.20
70050;BMP180;57391;51.306;22.680;2022-09-30T03:42:18;99158.20;;;7.20
70050;BMP180;57391;51.306;22.680;2022-09-30T03:47:26;99154.00;;;7.20
70050;BMP180;57391;51.306;22.680;2022-09-30T03:50:00;99147.80;;;7.20
70050;BMP180;57391;51.306;22.680;2022-09-30T03:52:31;99147.40;;;7.28
70050;BMP180;57391;51.306;22.680;2022-09-30T03:55:04;99148.80;;;7.30
70050;BMP180;57391;51.306;22.680;2022-09-30T03:57:31;99157.40;;;7.30
70050;BMP180;57391;51.306;22.680;2022-09-30T03:59:59;99159.00;;;7.30
70050;BMP180;57391;51.306;22.680;2022-09-30T04:02:26;99159.80;;;7.30
70050;BMP180;57391;51.306;22.680;2022-09-30T04:04:54;99160.40;;;7.30
70050;BMP180;57391;51.306;22.680;2022-09-30T04:07:21;99162.80;;;7.24
70050;BMP180;57391;51.306;22.680;2022-09-30T04:09:48;99169.60;;;7.22
70050;BMP180;57391;51.306;22.680;2022-09-30T04:12:15;99168.20;;;7.20
70050;BMP180;57391;51.306;22.680;2022-09-30T04:14:43;99167.80;;;7.20
70050;BMP180;57391;51.306;22.680;2022-09-30T04:17:10;99167.40;;;7.20
70050;BMP180;57391;51.306;22.680;2022-09-30T04:19:37;99171.20;;;7.20
70050;BMP180;57391;51.306;22.680;2022-09-30T04:22:07;99183.60;;;7.20
70050;BMP180;57391;51.306;22.680;2022-09-30T04:24:35;99190.20;;;7.20
70050;BMP180;57391;51.306;22.680;2022-09-30T04:27:03;99186.60;;;7.20
70050;BMP180;57391;51.306;22.680;2022-09-30T04:29:30;99186.60;;;7.14
70050;BMP180;57391;51.306;22.680;2022-09-30T04:31:58;99188.60;;;7.10
70050;BMP180;57391;51.306;22.680;2022-09-30T04:34:26;99194.20;;;7.10
70050;BMP180;57391;51.306;22.680;2022-09-30T04:36:53;99195.40;;;7.10
70050;BMP180;57391;51.306;22.680;2022-09-30T04:39:21;99203.20;;;7.10
70050;BMP180;57391;51.306;22.680;2022-09-30T04:41:48;99201.60;;;7.10
70050;BMP180;57391;51.306;22.680;2022-09-30T04:44:16;99202.00;;;7.10
70050;BMP180;57391;51.306;22.680;2022-09-30T04:46:44;99204.60;;;7.14
70050;BMP180;57391;51.306;22.680;2022-09-30T04:49:12;99200.80;;;7.20
70050;BMP180;57391;51.306;22.680;2022-09-30T04:51:39;99198.60;;;7.20
70050;BMP180;57391;51.306;22.680;2022-09-30T04:54:10;99203.40;;;7.30
70050;BMP180;57391;51.306;22.680;2022-09-30T04:56:37;99206.40;;;7.30
70050;BMP180;57391;51.306;22.680;2022-09-30T04:59:05;99216.40;;;7.34
70050;BMP180;57391;51.306;22.680;2022-09-30T05:01:33;99221.00;;;7.40
70050;BMP180;57391;51.306;22.680;2022-09-30T05:04:01;99222.00;;;7.40
70050;BMP180;57391;51.306;22.680;2022-09-30T05:06:28;99224.20;;;7.50
70050;BMP180;57391;51.306;22.680;2022-09-30T05:08:57;99226.60;;;7.58
70050;BMP180;57391;51.306;22.680;2022-09-30T05:11:24;99232.60;;;7.64
70050;BMP180;57391;51.306;22.680;2022-09-30T05:13:52;99231.00;;;7.70
70050;BMP180;57391;51.306;22.680;2022-09-30T05:16:19;99234.40;;;7.80
70050;BMP180;57391;51.306;22.680;2022-09-30T05:18:48;99247.00;;;7.90
70050;BMP180;57391;51.306;22.680;2022-09-30T05:21:17;99244.80;;;8.00
70050;BMP180;57391;51.306;22.680;2022-09-30T05:23:48;99252.20;;;8.10
70050;BMP180;57391;51.306;22.680;2022-09-30T05:26:15;99254.40;;;8.10
70050;BMP180;57391;51.306;22.680;2022-09-30T05:28:43;99256.80;;;8.14
70050;BMP180;57391;51.306;22.680;2022-09-30T05:31:11;99260.40;;;8.20
70050;BMP180;57391;51.306;22.680;2022-09-30T05:33:40;99271.20;;;8.30
70050;BMP180;57391;51.306;22.680;2022-09-30T05:36:13;99269.40;;;8.40
70050;BMP180;57391;51.306;22.680;2022-09-30T05:38:42;99271.80;;;8.50
70050;BMP180;57391;51.306;22.680;2022-09-30T05:41:12;99274.80;;;8.50
70050;BMP180;57391;51.306;22.680;2022-09-30T05:43:42;99282.80;;;8.60
70050;BMP180;57391;51.306;22.680;2022-09-30T05:46:17;99282.60;;;8.66
70050;BMP180;57391;51.306;22.680;2022-09-30T05:48:45;99280.60;;;8.74
70050;BMP180;57391;51.306;22.680;2022-09-30T05:51:13;99288.80;;;8.84
70050;BMP180;57391;51.306;22.680;2022-09-30T05:53:40;99281.00;;;8.98
70050;BMP180;57391;51.306;22.680;2022-09-30T05:56:09;99284.80;;;9.44
70050;BMP180;57391;51.306;22.680;2022-09-30T05:58:38;99281.80;;;9.90
70050;BMP180;57391;51.306;22.680;2022-09-30T06:01:14;99284.00;;;10.28
70050;BMP180;57391;51.306;22.680;2022-09-30T06:03:44;99283.20;;;10.60
70050;BMP180;57391;51.306;22.680;2022-09-30T06:06:14;99285.80;;;11.20
70050;BMP180;57391;51.306;22.680;2022-09-30T06:08:42;99282.80;;;11.68
70050;BMP180;57391;51.306;22.680;2022-09-30T06:11:14;99281.20;;;12.12
70050;BMP180;57391;51.306;22.680;2022-09-30T06:13:44;99277.60;;;12.30
70050;BMP180;57391;51.306;22.680;2022-09-30T06:16:14;99274.20;;;12.40
70050;BMP180;57391;51.306;22.680;2022-09-30T06:18:42;99263.80;;;12.48
70050;BMP180;57391;51.306;22.680;2022-09-30T06:21:14;99268.20;;;12.40
70050;BMP180;57391;51.306;22.680;2022-09-30T06:23:42;99269.80;;;12.40
70050;BMP180;57391;51.306;22.680;2022-09-30T06:26:12;99270.20;;;12.40
70050;BMP180;57391;51.306;22.680;2022-09-30T06:28:42;99275.40;;;12.60
70050;BMP180;57391;51.306;22.680;2022-09-30T06:31:11;99279.40;;;12.70
70050;BMP180;57391;51.306;22.680;2022-09-30T06:33:39;99285.20;;;12.60
70050;BMP180;57391;51.306;22.680;2022-09-30T06:36:06;99280.00;;;12.30
70050;BMP180;57391;51.306;22.680;2022-09-30T06:38:34;99280.40;;;12.10
70050;BMP180;57391;51.306;22.680;2022-09-30T06:41:03;99283.20;;;11.94
70050;BMP180;57391;51.306;22.680;2022-09-30T06:43:31;99285.40;;;11.76
70050;BMP180;57391;51.306;22.680;2022-09-30T06:45:58;99288.00;;;11.50
70050;BMP180;57391;51.306;22.680;2022-09-30T06:48:27;99289.00;;;11.40
70050;BMP180;57391;51.306;22.680;2022-09-30T06:50:59;99292.80;;;11.30
70050;BMP180;57391;51.306;22.680;2022-09-30T06:53:26;99297.00;;;11.10
70050;BMP180;57391;51.306;22.680;2022-09-30T06:55:56;99293.00;;;11.08
70050;BMP180;57391;51.306;22.680;2022-09-30T06:58:24;99297.40;;;11.02
70050;BMP180;57391;51.306;22.680;2022-09-30T07:01:04;99294.20;;;11.00
70050;BMP180;57391;51.306;22.680;2022-09-30T07:03:35;99298.60;;;10.90
70050;BMP180;57391;51.306;22.680;2022-09-30T07:06:04;99298.80;;;10.80
70050;BMP180;57391;51.306;22.680;2022-09-30T07:08:34;99299.40;;;10.80
70050;BMP180;57391;51.306;22.680;2022-09-30T07:11:07;99303.00;;;10.80
70050;BMP180;57391;51.306;22.680;2022-09-30T07:13:38;99312.80;;;10.80
70050;BMP180;57391;51.306;22.680;2022-09-30T07:16:06;99315.80;;;10.74
70050;BMP180;57391;51.306;22.680;2022-09-30T07:18:34;99320.20;;;10.70
70050;BMP180;57391;51.306;22.680;2022-09-30T07:21:03;99322.40;;;10.70
70050;BMP180;57391;51.306;22.680;2022-09-30T07:23:31;99334.80;;;10.70
70050;BMP180;57391;51.306;22.680;2022-09-30T07:26:02;99337.20;;;10.76
70050;BMP180;57391;51.306;22.680;2022-09-30T07:28:35;99340.00;;;10.80
70050;BMP180;57391;51.306;22.680;2022-09-30T07:31:13;99335.80;;;10.80
70050;BMP180;57391;51.306;22.680;2022-09-30T07:33:44;99331.80;;;10.80
70050;BMP180;57391;51.306;22.680;2022-09-30T07:36:14;99330.00;;;10.80
70050;BMP180;57391;51.306;22.680;2022-09-30T07:38:45;99335.20;;;10.80
70050;BMP180;57391;51.306;22.680;2022-09-30T07:41:20;99334.80;;;10.90
70050;BMP180;57391;51.306;22.680;2022-09-30T07:43:52;99332.40;;;10.90
70050;BMP180;57391;51.306;22.680;2022-09-30T07:46:24;99331.00;;;10.90
70050;BMP180;57391;51.306;22.680;2022-09-30T07:48:54;99328.20;;;10.92
70050;BMP180;57391;51.306;22.680;2022-09-30T07:51:29;99331.60;;;10.98
70050;BMP180;57391;51.306;22.680;2022-09-30T07:54:05;99326.00;;;10.90
70050;BMP180;57391;51.306;22.680;2022-09-30T07:56:35;99324.20;;;10.90
70050;BMP180;57391;51.306;22.680;2022-09-30T07:59:05;99319.40;;;11.00
70050;BMP180;57391;51.306;22.680;2022-09-30T08:01:32;99333.00;;;11.00
70050;BMP180;57391;51.306;22.680;2022-09-30T08:04:06;99328.60;;;11.08
70050;BMP180;57391;51.306;22.680;2022-09-30T08:06:48;99329.40;;;11.10
70050;BMP180;57391;51.306;22.680;2022-09-30T08:09:19;99331.00;;;11.20
70050;BMP180;57391;51.306;22.680;2022-09-30T08:11:48;99326.40;;;11.24
70050;BMP180;57391;51.306;22.680;2022-09-30T08:14:28;99321.80;;;11.30
70050;BMP180;57391;51.306;22.680;2022-09-30T08:16:56;99320.20;;;11.40
70050;BMP180;57391;51.306;22.680;2022-09-30T08:19:26;99322.40;;;11.50
70050;BMP180;57391;51.306;22.680;2022-09-30T08:21:55;99326.80;;;11.60
70050;BMP180;57391;51.306;22.680;2022-09-30T08:24:24;99326.40;;;11.70
70050;BMP180;57391;51.306;22.680;2022-09-30T08:26:53;99330.60;;;11.70
70050;BMP180;57391;51.306;22.680;2022-09-30T08:29:21;99332.00;;;11.78
70050;BMP180;57391;51.306;22.680;2022-09-30T08:31:48;99335.00;;;11.80
70050;BMP180;57391;51.306;22.680;2022-09-30T08:34:17;99337.20;;;11.80
70050;BMP180;57391;51.306;22.680;2022-09-30T08:36:45;99340.80;;;11.80
70050;BMP180;57391;51.306;22.680;2022-09-30T08:39:13;99345.20;;;11.80
70050;BMP180;57391;51.306;22.680;2022-09-30T08:51:31;99342.00;;;11.90
70050;BMP180;57391;51.306;22.680;2022-09-30T08:54:03;99346.00;;;11.90
70050;BMP180;57391;51.306;22.680;2022-09-30T08:56:33;99344.80;;;11.90
70050;BMP180;57391;51.306;22.680;2022-09-30T08:59:44;99345.60;;;11.92
70050;BMP180;57391;51.306;22.680;2022-09-30T09:02:32;99341.60;;;12.00
70050;BMP180;57391;51.306;22.680;2022-09-30T09:05:04;99341.80;;;12.10
70050;BMP180;57391;51.306;22.680;2022-09-30T09:10:45;99344.80;;;12.10
70050;BMP180;57391;51.306;22.680;2022-09-30T09:16:09;99344.80;;;12.20
70050;BMP180;57391;51.306;22.680;2022-09-30T09:19:10;99353.40;;;12.30
70050;BMP180;57391;51.306;22.680;2022-09-30T09:24:36;99351.00;;;12.40
70050;BMP180;57391;51.306;22.680;2022-09-30T09:27:40;99351.20;;;12.50
70050;BMP180;57391;51.306;22.680;2022-09-30T09:30:18;99350.20;;;12.50
70050;BMP180;57391;51.306;22.680;2022-09-30T09:32:54;99350.60;;;12.60
70050;BMP180;57391;51.306;22.680;2022-09-30T09:41:47;99336.60;;;12.70
70050;BMP180;57391;51.306;22.680;2022-09-30T09:47:12;99337.20;;;12.80
70050;BMP180;57391;51.306;22.680;2022-09-30T09:49:49;99335.40;;;12.80
70050;BMP180;57391;51.306;22.680;2022-09-30T09:55:25;99332.20;;;12.80
70050;BMP180;57391;51.306;22.680;2022-09-30T09:58:12;99328.80;;;12.80
70050;BMP180;57391;51.306;22.680;2022-09-30T10:00:41;99330.80;;;12.80
70050;BMP180;57391;51.306;22.680;2022-09-30T10:03:23;99323.80;;;12.80
70050;BMP180;57391;51.306;22.680;2022-09-30T10:06:03;99319.60;;;12.88
70050;BMP180;57391;51.306;22.680;2022-09-30T10:08:38;99320.60;;;12.90
70050;BMP180;57391;51.306;22.680;2022-09-30T10:11:24;99316.80;;;12.90
70050;BMP180;57391;51.306;22.680;2022-09-30T10:13:58;99314.80;;;12.90
70050;BMP180;57391;51.306;22.680;2022-09-30T10:16:34;99322.80;;;13.00
70050;BMP180;57391;51.306;22.680;2022-09-30T10:19:15;99320.00;;;13.00
70050;BMP180;57391;51.306;22.680;2022-09-30T10:21:44;99320.60;;;13.10
70050;BMP180;57391;51.306;22.680;2022-09-30T10:24:28;99319.20;;;13.10
70050;BMP180;57391;51.306;22.680;2022-09-30T10:26:57;99318.60;;;13.20
70050;BMP180;57391;51.306;22.680;2022-09-30T10:29:33;99321.00;;;13.20
70050;BMP180;57391;51.306;22.680;2022-09-30T10:32:07;99326.00;;;13.20
70050;BMP180;57391;51.306;22.680;2022-09-30T10:34:39;99328.00;;;13.10
70050;BMP180;57391;51.306;22.680;2022-09-30T10:37:14;99327.40;;;13.10
70050;BMP180;57391;51.306;22.680;2022-09-30T10:40:00;99324.60;;;13.00
70050;BMP180;57391;51.306;22.680;2022-09-30T10:42:31;99330.40;;;13.00
70050;BMP180;57391;51.306;22.680;2022-09-30T10:45:06;99327.20;;;13.00
70050;BMP180;57391;51.306;22.680;2022-09-30T10:47:45;99325.80;;;12.90
70050;BMP180;57391;51.306;22.680;2022-09-30T10:50:18;99325.20;;;12.90
70050;BMP180;57391;51.306;22.680;2022-09-30T10:57:52;99325.40;;;12.90
70050;BMP180;57391;51.306;22.680;2022-09-30T11:00:23;99326.20;;;12.90
70050;BMP180;57391;51.306;22.680;2022-09-30T11:02:57;99326.40;;;12.90
70050;BMP180;57391;51.306;22.680;2022-09-30T11:05:48;99325.20;;;13.00
70050;BMP180;57391;51.306;22.680;2022-09-30T11:08:38;99323.40;;;13.00
70050;BMP180;57391;51.306;22.680;2022-09-30T11:11:37;99324.40;;;13.00
70050;BMP180;57391;51.306;22.680;2022-09-30T11:19:40;99323.00;;;13.10
70050;BMP180;57391;51.306;22.680;2022-09-30T11:25:05;99318.20;;;13.00
70050;BMP180;57391;51.306;22.680;2022-09-30T11:30:43;99322.80;;;13.10
70050;BMP180;57391;51.306;22.680;2022-09-30T11:36:40;99322.80;;;13.00
70050;BMP180;57391;51.306;22.680;2022-09-30T11:42:11;99319.20;;;13.08
70050;BMP180;57391;51.306;22.680;2022-09-30T11:44:43;99321.60;;;13.10
70050;BMP180;57391;51.306;22.680;2022-09-30T11:47:42;99323.40;;;13.10
70050;BMP180;57391;51.306;22.680;2022-09-30T11:50:36;99320.80;;;13.10
70050;BMP180;57391;51.306;22.680;2022-09-30T11:58:42;99320.40;;;13.10
70050;BMP180;57391;51.306;22.680;2022-09-30T12:04:04;99325.60;;;13.10
70050;BMP180;57391;51.306;22.680;2022-09-30T12:06:55;99323.00;;;13.10
70050;BMP180;57391;51.306;22.680;2022-09-30T12:09:28;99322.40;;;13.14
70050;BMP180;57391;51.306;22.680;2022-09-30T12:12:06;99321.60;;;13.10
70050;BMP180;57391;51.306;22.680;2022-09-30T12:15:06;99321.40;;;13.10
70050;BMP180;57391;51.306;22.680;2022-09-30T12:17:40;99320.60;;;13.10
70050;BMP180;57391;51.306;22.680;2022-09-30T12:20:41;99316.40;;;13.10
70050;BMP180;57391;51.306;22.680;2022-09-30T12:23:26;99315.60;;;13.10
70050;BMP180;57391;51.306;22.680;2022-09-30T12:26:02;99314.80;;;13.02
70050;BMP180;57391;51.306;22.680;2022-09-30T12:38:11;99324.60;;;13.00
70050;BMP180;57391;51.306;22.680;2022-09-30T12:44:58;99316.20;;;12.90
70050;BMP180;57391;51.306;22.680;2022-09-30T12:47:50;99322.20;;;12.90
70050;BMP180;57391;51.306;22.680;2022-09-30T12:50:27;99324.20;;;12.90
70050;BMP180;57391;51.306;22.680;2022-09-30T12:52:56;99328.00;;;12.80
70050;BMP180;57391;51.306;22.680;2022-09-30T12:57:59;99328.60;;;12.78
70050;BMP180;57391;51.306;22.680;2022-09-30T13:00:33;99327.20;;;12.76
70050;BMP180;57391;51.306;22.680;2022-09-30T13:03:16;99326.20;;;12.72
70050;BMP180;57391;51.306;22.680;2022-09-30T13:06:01;99330.60;;;12.70
70050;BMP180;57391;51.306;22.680;2022-09-30T13:14:35;99328.80;;;12.66
70050;BMP180;57391;51.306;22.680;2022-09-30T13:19:39;99329.40;;;12.60
70050;BMP180;57391;51.306;22.680;2022-09-30T13:35:49;99329.80;;;12.48
70050;BMP180;57391;51.306;22.680;2022-09-30T13:38:20;99330.60;;;12.46
70050;BMP180;57391;51.306;22.680;2022-09-30T13:43:57;99324.40;;;12.40
70050;BMP180;57391;51.306;22.680;2022-09-30T13:46:38;99323.20;;;12.40
70050;BMP180;57391;51.306;22.680;2022-09-30T13:49:48;99319.40;;;12.36
70050;BMP180;57391;51.306;22.680;2022-09-30T13:52:30;99316.80;;;12.30
70050;BMP180;57391;51.306;22.680;2022-09-30T13:55:07;99315.00;;;12.30
70050;BMP180;57391;51.306;22.680;2022-09-30T14:01:27;99315.00;;;12.30
70050;BMP180;57391;51.306;22.680;2022-09-30T14:05:13;99316.80;;;12.20
70050;BMP180;57391;51.306;22.680;2022-09-30T14:22:09;99318.20;;;12.00
70050;BMP180;57391;51.306;22.680;2022-09-30T14:24:38;99320.00;;;11.94
70050;BMP180;57391;51.306;22.680;2022-09-30T14:30:25;99320.60;;;11.90
70050;BMP180;57391;51.306;22.680;2022-09-30T14:33:01;99318.40;;;11.90
70050;BMP180;57391;51.306;22.680;2022-09-30T14:35:33;99317.20;;;11.90
70050;BMP180;57391;51.306;22.680;2022-09-30T14:38:27;99318.60;;;11.90
70050;BMP180;57391;51.306;22.680;2022-09-30T14:41:02;99314.20;;;11.90
70050;BMP180;57391;51.306;22.680;2022-09-30T14:43:40;99306.60;;;11.80
70050;BMP180;57391;51.306;22.680;2022-09-30T14:46:32;99309.20;;;11.80
70050;BMP180;57391;51.306;22.680;2022-09-30T14:49:05;99308.80;;;11.74
70050;BMP180;57391;51.306;22.680;2022-09-30T14:51:40;99309.00;;;11.70
70050;BMP180;57391;51.306;22.680;2022-09-30T14:54:20;99302.40;;;11.70
70050;BMP180;57391;51.306;22.680;2022-09-30T14:56:49;99307.00;;;11.70
70050;BMP180;57391;51.306;22.680;2022-09-30T14:59:23;99308.00;;;11.60
70050;BMP180;57391;51.306;22.680;2022-09-30T15:02:01;99308.80;;;11.60
70050;BMP180;57391;51.306;22.680;2022-09-30T15:04:34;99308.60;;;11.60
70050;BMP180;57391;51.306;22.680;2022-09-30T15:07:09;99311.40;;;11.60
70050;BMP180;57391;51.306;22.680;2022-09-30T15:09:41;99306.60;;;11.60
70050;BMP180;57391;51.306;22.680;2022-09-30T15:12:19;99311.00;;;11.60
70050;BMP180;57391;51.306;22.680;2022-09-30T15:14:54;99307.00;;;11.60
70050;BMP180;57391;51.306;22.680;2022-09-30T15:17:35;99306.80;;;11.50
70050;BMP180;57391;51.306;22.680;2022-09-30T15:22:51;99301.60;;;11.50
70050;BMP180;57391;51.306;22.680;2022-09-30T15:25:20;99300.40;;;11.50
70050;BMP180;57391;51.306;22.680;2022-09-30T15:27:49;99296.60;;;11.50
70050;BMP180;57391;51.306;22.680;2022-09-30T15:32:45;99302.40;;;11.50
70050;BMP180;57391;51.306;22.680;2022-09-30T15:35:18;99297.00;;;11.50
70050;BMP180;57391;51.306;22.680;2022-09-30T15:37:51;99301.80;;;11.50
70050;BMP180;57391;51.306;22.680;2022-09-30T15:40:23;99303.40;;;11.50
70050;BMP180;57391;51.306;22.680;2022-09-30T15:43:12;99304.20;;;11.50
70050;BMP180;57391;51.306;22.680;2022-09-30T15:45:44;99310.80;;;11.50
70050;BMP180;57391;51.306;22.680;2022-09-30T15:50:47;99311.40;;;11.50
70050;BMP180;57391;51.306;22.680;2022-09-30T15:55:49;99321.20;;;11.50
70050;BMP180;57391;51.306;22.680;2022-09-30T16:01:23;99316.00;;;11.50
70050;BMP180;57391;51.306;22.680;2022-09-30T16:06:56;99311.60;;;11.46
70050;BMP180;57391;51.306;22.680;2022-09-30T16:09:36;99309.00;;;11.40
70050;BMP180;57391;51.306;22.680;2022-09-30T16:12:14;99298.20;;;11.40
70050;BMP180;57391;51.306;22.680;2022-09-30T16:19:59;99294.20;;;11.40
70050;BMP180;57391;51.306;22.680;2022-09-30T16:28:13;99295.60;;;11.40
70050;BMP180;57391;51.306;22.680;2022-09-30T16:30:51;99296.40;;;11.42
70050;BMP180;57391;51.306;22.680;2022-09-30T16:33:22;99296.00;;;11.44
70050;BMP180;57391;51.306;22.680;2022-09-30T16:35:49;99291.40;;;11.50
70050;BMP180;57391;51.306;22.680;2022-09-30T16:38:17;99291.60;;;11.50
70050;BMP180;57391;51.306;22.680;2022-09-30T16:40:46;99290.00;;;11.50
70050;BMP180;57391;51.306;22.680;2022-09-30T16:43:14;99288.60;;;11.50
70050;BMP180;57391;51.306;22.680;2022-09-30T16:45:43;99288.20;;;11.50
70050;BMP180;57391;51.306;22.680;2022-09-30T16:48:16;99292.00;;;11.50
70050;BMP180;57391;51.306;22.680;2022-09-30T16:53:34;99290.20;;;11.50
70050;BMP180;57391;51.306;22.680;2022-09-30T16:56:04;99285.60;;;11.50
70050;BMP180;57391;51.306;22.680;2022-09-30T16:58:31;99290.00;;;11.48
70050;BMP180;57391;51.306;22.680;2022-09-30T17:00:59;99292.20;;;11.50
70050;BMP180;57391;51.306;22.680;2022-09-30T17:03:27;99290.00;;;11.50
70050;BMP180;57391;51.306;22.680;2022-09-30T17:05:58;99290.80;;;11.50
70050;BMP180;57391;51.306;22.680;2022-09-30T17:08:25;99289.20;;;11.50
70050;BMP180;57391;51.306;22.680;2022-09-30T17:10:54;99289.20;;;11.50
70050;BMP180;57391;51.306;22.680;2022-09-30T17:13:22;99290.80;;;11.50
70050;BMP180;57391;51.306;22.680;2022-09-30T17:15:50;99287.20;;;11.52
70050;BMP180;57391;51.306;22.680;2022-09-30T17:18:18;99287.40;;;11.60
70050;BMP180;57391;51.306;22.680;2022-09-30T17:20:48;99289.60;;;11.60
70050;BMP180;57391;51.306;22.680;2022-09-30T17:23:24;99287.40;;;11.60
70050;BMP180;57391;51.306;22.680;2022-09-30T17:25:52;99288.40;;;11.60
70050;BMP180;57391;51.306;22.680;2022-09-30T17:28:21;99285.60;;;11.66
70050;BMP180;57391;51.306;22.680;2022-09-30T17:30:50;99284.80;;;11.70
70050;BMP180;57391;51.306;22.680;2022-09-30T17:33:20;99287.60;;;11.70
70050;BMP180;57391;51.306;22.680;2022-09-30T17:36:10;99287.40;;;11.70
70050;BMP180;57391;51.306;22.680;2022-09-30T17:38:39;99290.20;;;11.74
70050;BMP180;57391;51.306;22.680;2022-09-30T17:41:11;99290.00;;;11.80
70050;BMP180;57391;51.306;22.680;2022-09-30T17:43:59;99292.80;;;11.80
70050;BMP180;57391;51.306;22.680;2022-09-30T17:46:41;99292.00;;;11.80
70050;BMP180;57391;51.306;22.680;2022-09-30T17:49:11;99296.60;;;11.80
70050;BMP180;57391;51.306;22.680;2022-09-30T17:51:44;99305.20;;;11.80
70050;BMP180;57391;51.306;22.680;2022-09-30T17:54:12;99311.00;;;11.84
70050;BMP180;57391;51.306;22.680;2022-09-30T17:56:40;99314.00;;;11.90
70050;BMP180;57391;51.306;22.680;2022-09-30T17:59:13;99316.00;;;11.90
70050;BMP180;57391;51.306;22.680;2022-09-30T18:01:48;99319.20;;;11.90
70050;BMP180;57391;51.306;22.680;2022-09-30T18:04:23;99326.20;;;11.90
70050;BMP180;57391;51.306;22.680;2022-09-30T18:06:54;99329.20;;;11.94
70050;BMP180;57391;51.306;22.680;2022-09-30T18:09:27;99329.00;;;12.00